createdAt,value
2018-08-22T00:00:03.592Z,0
2018-08-22T00:00:44.423Z,0
2018-08-22T00:01:25.195Z,0
2018-08-22T00:02:06.059Z,0
2018-08-22T00:02:46.846Z,0
2018-08-22T00:03:27.574Z,0
2018-08-22T00:04:08.307Z,0
2018-08-22T00:04:49.045Z,0
2018-08-22T00:05:29.907Z,0
2018-08-22T00:06:10.713Z,0
2018-08-22T00:06:51.486Z,0
2018-08-22T00:07:32.289Z,0
2018-08-22T00:08:13.133Z,0
2018-08-22T00:08:53.936Z,0
2018-08-22T00:09:34.673Z,0
2018-08-22T00:10:15.391Z,0
2018-08-22T00:10:56.240Z,0
2018-08-22T00:11:37.024Z,0
2018-08-22T00:12:17.798Z,0
2018-08-22T00:12:58.566Z,0
2018-08-22T00:13:39.333Z,0
2018-08-22T00:14:20.180Z,0
2018-08-22T00:15:01.023Z,0
2018-08-22T00:15:41.784Z,0
2018-08-22T00:16:22.635Z,0
2018-08-22T00:17:03.549Z,0
2018-08-22T00:17:44.328Z,0
2018-08-22T00:18:25.070Z,0
2018-08-22T00:19:05.799Z,0
2018-08-22T00:19:46.528Z,0
2018-08-22T00:20:27.403Z,0
2018-08-22T00:21:08.239Z,0
2018-08-22T00:21:49.079Z,0
2018-08-22T00:22:29.915Z,0
2018-08-22T00:23:10.627Z,0
2018-08-22T00:23:51.469Z,0
2018-08-22T00:24:32.237Z,0
2018-08-22T00:25:13.039Z,0
2018-08-22T00:25:53.735Z,0
2018-08-22T00:26:34.486Z,0
2018-08-22T00:27:15.312Z,0
2018-08-22T00:27:56.101Z,0
2018-08-22T00:28:36.838Z,0
2018-08-22T00:29:17.761Z,0
2018-08-22T00:29:58.478Z,0
2018-08-22T00:30:39.336Z,0
2018-08-22T00:31:20.118Z,0
2018-08-22T00:32:00.854Z,0
2018-08-22T00:32:41.703Z,0
2018-08-22T00:33:22.439Z,0
2018-08-22T00:34:03.209Z,0
2018-08-22T00:34:43.932Z,0
2018-08-22T00:35:24.704Z,0
2018-08-22T00:36:05.559Z,0
2018-08-22T00:36:46.361Z,0
2018-08-22T00:37:27.209Z,0
2018-08-22T00:38:08.076Z,0
2018-08-22T00:38:48.799Z,0
2018-08-22T00:39:29.520Z,0
2018-08-22T00:40:10.372Z,0
2018-08-22T00:40:51.125Z,0
2018-08-22T00:41:31.898Z,0
2018-08-22T00:42:12.706Z,0
2018-08-22T00:42:53.539Z,0
2018-08-22T00:43:34.386Z,0
2018-08-22T00:44:15.160Z,0
2018-08-22T00:44:55.915Z,0
2018-08-22T00:45:36.766Z,0
2018-08-22T00:46:17.565Z,0
2018-08-22T00:46:58.346Z,0
2018-08-22T00:47:39.078Z,0
2018-08-22T00:48:19.806Z,0
2018-08-22T00:49:00.640Z,0
2018-08-22T00:49:41.420Z,0
2018-08-22T00:50:22.170Z,0
2018-08-22T00:51:03.023Z,0
2018-08-22T00:51:43.839Z,0
2018-08-22T00:52:24.649Z,0
2018-08-22T00:53:05.458Z,0
2018-08-22T00:53:46.231Z,0
2018-08-22T00:54:26.976Z,0
2018-08-22T00:55:07.726Z,0
2018-08-22T00:55:48.573Z,0
2018-08-22T00:56:29.469Z,0
2018-08-22T00:57:10.246Z,0
2018-08-22T00:57:51.033Z,0
2018-08-22T00:58:31.813Z,0
2018-08-22T00:59:12.660Z,0
2018-08-22T00:59:53.567Z,0
2018-08-22T01:00:34.481Z,0
2018-08-22T01:01:15.610Z,0
2018-08-22T01:01:56.455Z,0
2018-08-22T01:02:37.268Z,0
2018-08-22T01:03:18.137Z,0
2018-08-22T01:03:58.877Z,0
2018-08-22T01:04:39.668Z,0
2018-08-22T01:05:20.418Z,0
2018-08-22T01:06:01.168Z,0
2018-08-22T01:06:42.054Z,0
2018-08-22T01:07:22.778Z,0
2018-08-22T01:08:03.536Z,0
2018-08-22T01:08:44.356Z,0
2018-08-22T01:09:25.262Z,0
2018-08-22T01:10:06.078Z,0
2018-08-22T01:10:46.759Z,0
2018-08-22T01:11:27.504Z,0
2018-08-22T01:12:08.268Z,0
2018-08-22T01:12:49.124Z,0
2018-08-22T01:13:29.879Z,0
2018-08-22T01:14:10.762Z,0
2018-08-22T01:14:51.537Z,0
2018-08-22T01:15:32.290Z,0
2018-08-22T01:16:13.152Z,0
2018-08-22T01:16:53.897Z,0
2018-08-22T01:17:34.635Z,0
2018-08-22T01:18:15.355Z,0
2018-08-22T01:18:56.112Z,0
2018-08-22T01:19:36.954Z,0
2018-08-22T01:20:17.740Z,0
2018-08-22T01:20:58.474Z,0
2018-08-22T01:21:39.337Z,0
2018-08-22T01:22:20.203Z,0
2018-08-22T01:23:01.038Z,0
2018-08-22T01:23:41.802Z,0
2018-08-22T01:24:22.557Z,0
2018-08-22T01:25:03.412Z,0
2018-08-22T01:25:44.175Z,0
2018-08-22T01:26:24.940Z,0
2018-08-22T01:27:05.682Z,0
2018-08-22T01:27:46.480Z,0
2018-08-22T01:28:27.326Z,0
2018-08-22T01:29:08.180Z,0
2018-08-22T01:29:48.959Z,0
2018-08-22T01:30:29.697Z,0
2018-08-22T01:31:10.431Z,0
2018-08-22T01:31:51.172Z,0
2018-08-22T01:32:32.045Z,0
2018-08-22T01:33:12.826Z,0
2018-08-22T01:33:53.542Z,0
2018-08-22T01:34:34.367Z,0
2018-08-22T01:35:15.143Z,0
2018-08-22T01:35:55.988Z,0
2018-08-22T01:36:36.785Z,0
2018-08-22T01:37:17.542Z,0
2018-08-22T01:37:58.244Z,0
2018-08-22T01:38:39.012Z,0
2018-08-22T01:39:19.856Z,0
2018-08-22T01:40:00.633Z,0
2018-08-22T01:40:41.476Z,0
2018-08-22T01:41:22.219Z,0
2018-08-22T01:42:03.024Z,0
2018-08-22T01:42:43.915Z,0
2018-08-22T01:43:24.614Z,0
2018-08-22T01:44:05.350Z,0
2018-08-22T01:44:46.082Z,0
2018-08-22T01:45:26.919Z,0
2018-08-22T01:46:07.771Z,0
2018-08-22T01:46:48.612Z,0
2018-08-22T01:47:29.434Z,0
2018-08-22T01:48:10.194Z,0
2018-08-22T01:48:50.945Z,0
2018-08-22T01:49:31.696Z,0
2018-08-22T01:50:12.559Z,0
2018-08-22T01:50:53.286Z,0
2018-08-22T01:51:34.102Z,0
2018-08-22T01:52:14.994Z,0
2018-08-22T01:52:55.745Z,0
2018-08-22T01:53:36.624Z,0
2018-08-22T01:54:17.355Z,0
2018-08-22T01:54:58.106Z,0
2018-08-22T01:55:38.998Z,0
2018-08-22T01:56:19.720Z,0
2018-08-22T01:57:00.487Z,0
2018-08-22T01:57:41.191Z,0
2018-08-22T01:58:22.008Z,0
2018-08-22T01:59:02.816Z,0
2018-08-22T01:59:43.563Z,0
2018-08-22T02:00:24.298Z,0
2018-08-22T02:01:05.118Z,0
2018-08-22T02:01:45.935Z,0
2018-08-22T02:02:26.736Z,0
2018-08-22T02:03:07.507Z,0
2018-08-22T02:03:48.327Z,0
2018-08-22T02:04:29.068Z,0
2018-08-22T02:05:09.866Z,0
2018-08-22T02:05:50.689Z,0
2018-08-22T02:06:31.518Z,0
2018-08-22T02:07:12.245Z,0
2018-08-22T02:07:53.021Z,0
2018-08-22T02:08:33.866Z,0
2018-08-22T02:09:14.615Z,0
2018-08-22T02:09:55.394Z,0
2018-08-22T02:10:36.143Z,0
2018-08-22T02:11:16.932Z,0
2018-08-22T02:11:57.765Z,0
2018-08-22T02:12:38.521Z,0
2018-08-22T02:13:19.374Z,0
2018-08-22T02:14:00.093Z,0
2018-08-22T02:14:40.815Z,0
2018-08-22T02:15:21.574Z,0
2018-08-22T02:16:02.429Z,0
2018-08-22T02:16:43.258Z,0
2018-08-22T02:17:23.974Z,0
2018-08-22T02:18:04.771Z,0
2018-08-22T02:18:45.624Z,0
2018-08-22T02:19:26.456Z,0
2018-08-22T02:20:07.231Z,0
2018-08-22T02:20:47.950Z,0
2018-08-22T02:21:28.692Z,0
2018-08-22T02:22:09.451Z,0
2018-08-22T02:22:50.280Z,0
2018-08-22T02:23:31.067Z,0
2018-08-22T02:24:11.892Z,0
2018-08-22T02:24:52.617Z,0
2018-08-22T02:25:33.403Z,0
2018-08-22T02:26:14.279Z,0
2018-08-22T02:26:55.039Z,0
2018-08-22T02:27:35.769Z,0
2018-08-22T02:28:16.511Z,0
2018-08-22T02:28:57.321Z,0
2018-08-22T02:29:38.116Z,0
2018-08-22T02:30:18.882Z,0
2018-08-22T02:30:59.716Z,0
2018-08-22T02:31:40.557Z,0
2018-08-22T02:32:21.382Z,0
2018-08-22T02:33:02.139Z,0
2018-08-22T02:33:42.914Z,0
2018-08-22T02:34:23.762Z,0
2018-08-22T02:35:04.568Z,0
2018-08-22T02:35:45.341Z,0
2018-08-22T02:36:26.066Z,0
2018-08-22T02:37:06.776Z,0
2018-08-22T02:37:47.615Z,0
2018-08-22T02:38:28.439Z,0
2018-08-22T02:39:09.317Z,0
2018-08-22T02:39:50.087Z,0
2018-08-22T02:40:30.843Z,0
2018-08-22T02:41:11.593Z,0
2018-08-22T02:41:52.407Z,0
2018-08-22T02:42:33.244Z,0
2018-08-22T02:43:13.960Z,0
2018-08-22T02:43:54.832Z,0
2018-08-22T02:44:35.677Z,0
2018-08-22T02:45:16.544Z,0
2018-08-22T02:45:57.298Z,0
2018-08-22T02:46:38.068Z,0
2018-08-22T02:47:18.872Z,0
2018-08-22T02:47:59.725Z,0
2018-08-22T02:48:40.527Z,0
2018-08-22T02:49:21.271Z,0
2018-08-22T02:50:02.037Z,0
2018-08-22T02:50:42.863Z,0
2018-08-22T02:51:23.701Z,0
2018-08-22T02:52:04.431Z,0
2018-08-22T02:52:45.220Z,0
2018-08-22T02:53:26.075Z,0
2018-08-22T02:54:06.872Z,0
2018-08-22T02:54:47.700Z,0
2018-08-22T02:55:28.481Z,0
2018-08-22T02:56:09.219Z,0
2018-08-22T02:56:50.545Z,0
2018-08-22T02:57:31.327Z,0
2018-08-22T02:58:12.123Z,0
2018-08-22T02:58:52.995Z,0
2018-08-22T02:59:33.759Z,0
2018-08-22T03:00:14.544Z,0
2018-08-22T03:00:55.398Z,0
2018-08-22T03:01:36.162Z,0
2018-08-22T03:02:16.935Z,0
2018-08-22T03:02:57.663Z,0
2018-08-22T03:03:38.424Z,0
2018-08-22T03:04:19.303Z,0
2018-08-22T03:05:00.037Z,0
2018-08-22T03:05:40.791Z,0
2018-08-22T03:06:21.674Z,0
2018-08-22T03:07:02.488Z,0
2018-08-22T03:07:43.283Z,0
2018-08-22T03:08:24.028Z,0
2018-08-22T03:09:04.815Z,0
2018-08-22T03:09:45.725Z,0
2018-08-22T03:10:26.493Z,0
2018-08-22T03:11:07.246Z,0
2018-08-22T03:11:47.963Z,0
2018-08-22T03:12:28.763Z,0
2018-08-22T03:13:09.680Z,0
2018-08-22T03:13:50.468Z,0
2018-08-22T03:14:31.300Z,0
2018-08-22T03:15:12.060Z,0
2018-08-22T03:15:52.761Z,0
2018-08-22T03:16:33.544Z,0
2018-08-22T03:17:14.347Z,0
2018-08-22T03:17:55.102Z,0
2018-08-22T03:18:35.873Z,0
2018-08-22T03:19:16.741Z,0
2018-08-22T03:19:57.618Z,0
2018-08-22T03:20:38.478Z,0
2018-08-22T03:21:19.216Z,0
2018-08-22T03:22:00.023Z,0
2018-08-22T03:22:40.734Z,0
2018-08-22T03:23:21.594Z,0
2018-08-22T03:24:02.446Z,0
2018-08-22T03:24:43.250Z,0
2018-08-22T03:25:24.051Z,0
2018-08-22T03:26:04.874Z,0
2018-08-22T03:26:45.688Z,0
2018-08-22T03:27:26.551Z,0
2018-08-22T03:28:07.333Z,0
2018-08-22T03:28:48.055Z,0
2018-08-22T03:29:29.044Z,0
2018-08-22T03:30:09.844Z,0
2018-08-22T03:30:50.713Z,0
2018-08-22T03:31:31.585Z,0
2018-08-22T03:32:12.322Z,0
2018-08-22T03:32:53.088Z,0
2018-08-22T03:33:33.852Z,0
2018-08-22T03:34:14.651Z,0
2018-08-22T03:34:55.541Z,0
2018-08-22T03:35:36.268Z,0
2018-08-22T03:36:17.020Z,0
2018-08-22T03:36:57.880Z,0
2018-08-22T03:37:38.628Z,0
2018-08-22T03:38:19.432Z,0
2018-08-22T03:39:00.221Z,0
2018-08-22T03:39:41.056Z,0
2018-08-22T03:40:21.843Z,0
2018-08-22T03:41:02.563Z,0
2018-08-22T03:41:43.266Z,0
2018-08-22T03:42:24.007Z,0
2018-08-22T03:43:04.798Z,0
2018-08-22T03:43:45.622Z,0
2018-08-22T03:44:26.370Z,0
2018-08-22T03:45:07.197Z,0
2018-08-22T03:45:48.032Z,0
2018-08-22T03:46:28.908Z,0
2018-08-22T03:47:09.737Z,0
2018-08-22T03:47:50.466Z,0
2018-08-22T03:48:31.243Z,0
2018-08-22T03:49:12.004Z,0
2018-08-22T03:49:52.857Z,0
2018-08-22T03:50:33.662Z,0
2018-08-22T03:51:14.492Z,0
2018-08-22T03:51:55.256Z,0
2018-08-22T03:52:36.080Z,0
2018-08-22T03:53:16.912Z,0
2018-08-22T03:53:57.657Z,0
2018-08-22T03:54:38.402Z,0
2018-08-22T03:55:19.151Z,0
2018-08-22T03:55:59.949Z,0
2018-08-22T03:56:40.777Z,0
2018-08-22T03:57:21.630Z,0
2018-08-22T03:58:02.355Z,0
2018-08-22T03:58:43.066Z,0
2018-08-22T03:59:23.830Z,0
2018-08-22T04:00:04.623Z,0
2018-08-22T04:00:45.466Z,0
2018-08-22T04:01:26.167Z,0
2018-08-22T04:02:06.929Z,0
2018-08-22T04:02:47.799Z,0
2018-08-22T04:03:28.677Z,0
2018-08-22T04:04:09.488Z,0
2018-08-22T04:04:50.198Z,0
2018-08-22T04:05:30.922Z,0
2018-08-22T04:06:11.651Z,0
2018-08-22T04:06:52.448Z,0
2018-08-22T04:07:33.299Z,0
2018-08-22T04:08:14.156Z,0
2018-08-22T04:08:54.964Z,0
2018-08-22T04:09:35.678Z,0
2018-08-22T04:10:16.505Z,0
2018-08-22T04:10:57.270Z,0
2018-08-22T04:11:38.020Z,0
2018-08-22T04:12:18.767Z,0
2018-08-22T04:12:59.516Z,0
2018-08-22T04:13:40.322Z,0
2018-08-22T04:14:21.060Z,0
2018-08-22T04:15:01.831Z,0
2018-08-22T04:15:42.646Z,0
2018-08-22T04:16:23.463Z,0
2018-08-22T04:17:04.334Z,0
2018-08-22T04:17:45.111Z,0
2018-08-22T04:18:25.846Z,0
2018-08-22T04:19:06.682Z,0
2018-08-22T04:19:47.450Z,0
2018-08-22T04:20:28.185Z,0
2018-08-22T04:21:08.953Z,0
2018-08-22T04:21:49.720Z,0
2018-08-22T04:22:30.542Z,0
2018-08-22T04:23:11.331Z,0
2018-08-22T04:23:52.177Z,0
2018-08-22T04:24:32.960Z,0
2018-08-22T04:25:13.721Z,0
2018-08-22T04:25:54.501Z,0
2018-08-22T04:26:35.336Z,0
2018-08-22T04:27:16.128Z,0
2018-08-22T04:27:56.855Z,0
2018-08-22T04:28:37.673Z,0
2018-08-22T04:29:18.549Z,0
2018-08-22T04:29:59.431Z,0
2018-08-22T04:30:40.156Z,0
2018-08-22T04:31:20.943Z,0
2018-08-22T04:32:01.696Z,0
2018-08-22T04:32:42.567Z,0
2018-08-22T04:33:23.356Z,0
2018-08-22T04:34:04.152Z,0
2018-08-22T04:34:45.011Z,0
2018-08-22T04:35:25.752Z,0
2018-08-22T04:36:06.497Z,0
2018-08-22T04:36:47.329Z,0
2018-08-22T04:37:28.082Z,0
2018-08-22T04:38:08.846Z,0
2018-08-22T04:38:49.606Z,0
2018-08-22T04:39:30.466Z,0
2018-08-22T04:40:11.292Z,0
2018-08-22T04:40:52.175Z,0
2018-08-22T04:41:32.885Z,0
2018-08-22T04:42:13.648Z,0
2018-08-22T04:42:54.390Z,0
2018-08-22T04:43:35.139Z,0
2018-08-22T04:44:15.976Z,0
2018-08-22T04:44:56.720Z,0
2018-08-22T04:45:37.500Z,0
2018-08-22T04:46:18.344Z,0
2018-08-22T04:46:59.155Z,0
2018-08-22T04:47:39.968Z,0
2018-08-22T04:48:20.748Z,0
2018-08-22T04:49:01.472Z,0
2018-08-22T04:49:42.299Z,0
2018-08-22T04:50:23.075Z,0
2018-08-22T04:51:03.830Z,0
2018-08-22T04:51:44.630Z,0
2018-08-22T04:52:25.431Z,0
2018-08-22T04:53:06.303Z,0
2018-08-22T04:53:47.079Z,0
2018-08-22T04:54:27.853Z,0
2018-08-22T04:55:08.713Z,0
2018-08-22T04:55:49.509Z,0
2018-08-22T04:56:30.337Z,0
2018-08-22T04:57:11.064Z,0
2018-08-22T04:57:51.750Z,0
2018-08-22T04:58:32.491Z,0
2018-08-22T04:59:13.378Z,0
2018-08-22T04:59:54.223Z,0
2018-08-22T05:00:35.071Z,4
2018-08-22T05:01:15.828Z,4
2018-08-22T05:01:56.570Z,0
2018-08-22T05:02:37.449Z,0
2018-08-22T05:03:18.217Z,0
2018-08-22T05:03:58.941Z,4
2018-08-22T05:04:39.728Z,4
2018-08-22T05:05:20.506Z,0
2018-08-22T05:06:01.452Z,4
2018-08-22T05:06:42.164Z,4
2018-08-22T05:07:22.894Z,4
2018-08-22T05:08:03.676Z,4
2018-08-22T05:08:44.523Z,4
2018-08-22T05:09:25.353Z,8
2018-08-22T05:10:06.117Z,8
2018-08-22T05:10:46.882Z,8
2018-08-22T05:11:27.711Z,8
2018-08-22T05:12:08.519Z,8
2018-08-22T05:12:49.287Z,8
2018-08-22T05:13:30.041Z,8
2018-08-22T05:14:10.819Z,12
2018-08-22T05:14:51.702Z,12
2018-08-22T05:15:32.495Z,12
2018-08-22T05:16:13.294Z,12
2018-08-22T05:16:54.001Z,16
2018-08-22T05:17:34.756Z,16
2018-08-22T05:18:15.515Z,20
2018-08-22T05:18:56.303Z,20
2018-08-22T05:19:37.052Z,20
2018-08-22T05:20:17.793Z,20
2018-08-22T05:20:58.616Z,20
2018-08-22T05:21:39.431Z,24
2018-08-22T05:22:20.277Z,24
2018-08-22T05:23:01.091Z,28
2018-08-22T05:23:41.798Z,32
2018-08-22T05:24:22.622Z,32
2018-08-22T05:25:03.418Z,36
2018-08-22T05:25:44.199Z,36
2018-08-22T05:26:24.912Z,40
2018-08-22T05:27:05.654Z,44
2018-08-22T05:27:46.553Z,48
2018-08-22T05:28:27.293Z,52
2018-08-22T05:29:08.000Z,52
2018-08-22T05:29:48.793Z,56
2018-08-22T05:30:29.775Z,60
2018-08-22T05:31:10.584Z,64
2018-08-22T05:31:51.275Z,68
2018-08-22T05:32:32.059Z,72
2018-08-22T05:33:12.890Z,76
2018-08-22T05:33:53.713Z,80
2018-08-22T05:34:34.551Z,84
2018-08-22T05:35:15.334Z,88
2018-08-22T05:35:56.149Z,92
2018-08-22T05:36:36.895Z,96
2018-08-22T05:37:17.783Z,100
2018-08-22T05:37:58.590Z,104
2018-08-22T05:38:39.382Z,108
2018-08-22T05:39:20.080Z,116
2018-08-22T05:40:00.850Z,116
2018-08-22T05:40:41.749Z,124
2018-08-22T05:41:22.595Z,128
2018-08-22T05:42:03.416Z,136
2018-08-22T05:42:44.170Z,140
2018-08-22T05:43:24.960Z,144
2018-08-22T05:44:05.699Z,148
2018-08-22T05:44:46.493Z,156
2018-08-22T05:45:27.325Z,160
2018-08-22T05:46:08.070Z,164
2018-08-22T05:46:48.919Z,168
2018-08-22T05:47:29.694Z,176
2018-08-22T05:48:10.446Z,180
2018-08-22T05:48:51.299Z,188
2018-08-22T05:49:32.095Z,192
2018-08-22T05:50:12.904Z,200
2018-08-22T05:50:53.641Z,204
2018-08-22T05:51:34.453Z,208
2018-08-22T05:52:15.301Z,216
2018-08-22T05:52:56.154Z,224
2018-08-22T05:53:36.884Z,224
2018-08-22T05:54:17.719Z,232
2018-08-22T05:54:58.589Z,240
2018-08-22T05:55:39.420Z,244
2018-08-22T05:56:20.167Z,248
2018-08-22T05:57:00.931Z,256
2018-08-22T05:57:41.819Z,260
2018-08-22T05:58:22.594Z,268
2018-08-22T05:59:03.306Z,276
2018-08-22T05:59:44.049Z,280
2018-08-22T06:00:24.880Z,284
2018-08-22T06:01:05.694Z,292
2018-08-22T06:01:46.573Z,296
2018-08-22T06:02:27.302Z,304
2018-08-22T06:03:08.194Z,312
2018-08-22T06:03:49.084Z,316
2018-08-22T06:04:29.796Z,324
2018-08-22T06:05:10.515Z,328
2018-08-22T06:05:51.269Z,332
2018-08-22T06:06:32.166Z,340
2018-08-22T06:07:13.052Z,348
2018-08-22T06:07:53.921Z,352
2018-08-22T06:08:34.700Z,360
2018-08-22T06:09:15.550Z,368
2018-08-22T06:09:56.873Z,372
2018-08-22T06:10:37.643Z,376
2018-08-22T06:11:18.503Z,388
2018-08-22T06:11:59.264Z,392
2018-08-22T06:12:40.071Z,400
2018-08-22T06:13:20.917Z,404
2018-08-22T06:14:01.778Z,412
2018-08-22T06:14:42.649Z,420
2018-08-22T06:15:23.348Z,424
2018-08-22T06:16:04.144Z,428
2018-08-22T06:16:44.886Z,436
2018-08-22T06:17:25.741Z,444
2018-08-22T06:18:06.582Z,456
2018-08-22T06:18:47.505Z,472
2018-08-22T06:19:28.319Z,492
2018-08-22T06:20:09.047Z,516
2018-08-22T06:20:50.032Z,544
2018-08-22T06:21:30.832Z,572
2018-08-22T06:22:11.585Z,608
2018-08-22T06:22:52.356Z,644
2018-08-22T06:23:33.115Z,688
2018-08-22T06:24:13.920Z,740
2018-08-22T06:24:54.783Z,800
2018-08-22T06:25:35.632Z,868
2018-08-22T06:26:16.344Z,944
2018-08-22T06:26:57.072Z,1024
2018-08-22T06:27:37.791Z,1092
2018-08-22T06:28:18.639Z,1148
2018-08-22T06:28:59.414Z,1196
2018-08-22T06:29:40.173Z,1236
2018-08-22T06:30:20.965Z,1276
2018-08-22T06:31:01.789Z,1304
2018-08-22T06:31:42.641Z,1328
2018-08-22T06:32:23.433Z,1352
2018-08-22T06:33:04.241Z,1372
2018-08-22T06:33:44.968Z,1392
2018-08-22T06:34:25.830Z,1420
2018-08-22T06:35:06.509Z,1440
2018-08-22T06:35:47.311Z,1464
2018-08-22T06:36:28.057Z,1480
2018-08-22T06:37:08.879Z,1500
2018-08-22T06:37:49.631Z,1516
2018-08-22T06:38:30.357Z,1540
2018-08-22T06:39:11.178Z,1560
2018-08-22T06:39:51.968Z,1580
2018-08-22T06:40:32.770Z,1600
2018-08-22T06:41:13.523Z,1620
2018-08-22T06:41:54.260Z,1640
2018-08-22T06:42:34.961Z,1664
2018-08-22T06:43:15.858Z,1684
2018-08-22T06:43:56.652Z,1704
2018-08-22T06:44:37.513Z,1732
2018-08-22T06:45:18.288Z,1752
2018-08-22T06:45:59.023Z,1776
2018-08-22T06:46:39.924Z,1800
2018-08-22T06:47:20.767Z,1824
2018-08-22T06:48:01.507Z,1848
2018-08-22T06:48:42.265Z,1876
2018-08-22T06:49:22.976Z,1912
2018-08-22T06:50:03.855Z,1928
2018-08-22T06:50:44.601Z,1952
2018-08-22T06:51:25.403Z,1980
2018-08-22T06:52:06.219Z,2004
2018-08-22T06:52:46.996Z,2028
2018-08-22T06:53:27.742Z,2048
2018-08-22T06:54:08.582Z,2068
2018-08-22T06:54:49.363Z,2072
2018-08-22T06:55:30.215Z,2056
2018-08-22T06:56:11.112Z,2052
2018-08-22T06:56:51.988Z,2076
2018-08-22T06:57:32.847Z,2172
2018-08-22T06:58:13.688Z,2296
2018-08-22T06:58:54.423Z,2676
2018-08-22T06:59:35.221Z,5836
2018-08-22T07:00:15.972Z,11200
2018-08-22T07:00:56.821Z,17984
2018-08-22T07:01:37.630Z,23776
2018-08-22T07:02:18.491Z,27648
2018-08-22T07:02:59.353Z,28896
2018-08-22T07:03:40.146Z,30816
2018-08-22T07:04:21.066Z,31104
2018-08-22T07:05:01.839Z,30592
2018-08-22T07:05:42.602Z,30208
2018-08-22T07:06:23.397Z,30144
2018-08-22T07:07:04.207Z,29568
2018-08-22T07:07:45.037Z,29696
2018-08-22T07:08:25.818Z,30656
2018-08-22T07:09:06.605Z,31520
2018-08-22T07:09:47.459Z,31776
2018-08-22T07:10:28.369Z,31936
2018-08-22T07:11:09.173Z,30880
2018-08-22T07:11:49.930Z,30624
2018-08-22T07:12:31.149Z,31616
2018-08-22T07:13:11.936Z,33152
2018-08-22T07:13:52.746Z,34784
2018-08-22T07:14:33.432Z,35168
2018-08-22T07:15:14.191Z,35136
2018-08-22T07:15:55.110Z,34112
2018-08-22T07:16:35.913Z,32480
2018-08-22T07:17:16.811Z,31712
2018-08-22T07:17:57.589Z,32256
2018-08-22T07:18:38.323Z,33472
2018-08-22T07:19:19.131Z,34112
2018-08-22T07:19:59.991Z,33920
2018-08-22T07:20:40.900Z,32448
2018-08-22T07:21:21.645Z,30944
2018-08-22T07:22:02.449Z,31168
2018-08-22T07:22:43.297Z,32320
2018-08-22T07:23:24.164Z,33440
2018-08-22T07:24:04.965Z,33984
2018-08-22T07:24:45.749Z,33792
2018-08-22T07:25:26.529Z,32288
2018-08-22T07:26:07.373Z,30336
2018-08-22T07:26:48.139Z,29408
2018-08-22T07:27:28.926Z,30240
2018-08-22T07:28:09.816Z,31456
2018-08-22T07:28:50.559Z,32480
2018-08-22T07:29:31.439Z,32320
2018-08-22T07:30:12.384Z,31232
2018-08-22T07:30:53.188Z,29888
2018-08-22T07:31:34.099Z,29472
2018-08-22T07:32:14.909Z,29248
2018-08-22T07:32:55.751Z,28704
2018-08-22T07:33:36.512Z,27904
2018-08-22T07:34:17.240Z,27552
2018-08-22T07:34:57.996Z,27808
2018-08-22T07:35:38.919Z,28832
2018-08-22T07:36:19.654Z,30016
2018-08-22T07:37:00.548Z,30848
2018-08-22T07:37:41.310Z,30592
2018-08-22T07:38:22.026Z,30560
2018-08-22T07:39:02.865Z,29952
2018-08-22T07:39:43.662Z,30208
2018-08-22T07:40:24.501Z,32736
2018-08-22T07:41:05.297Z,33376
2018-08-22T07:41:46.034Z,33024
2018-08-22T07:42:27.144Z,32096
2018-08-22T07:43:08.330Z,32352
2018-08-22T07:43:49.084Z,32864
2018-08-22T07:44:29.958Z,32960
2018-08-22T07:45:10.830Z,32832
2018-08-22T07:45:51.649Z,35808
2018-08-22T07:46:32.392Z,36128
2018-08-22T07:47:13.137Z,23872
2018-08-22T07:47:53.962Z,8396
2018-08-22T07:48:34.786Z,2580
2018-08-22T07:49:15.445Z,2064
2018-08-22T07:49:56.149Z,1884
2018-08-22T07:50:37.042Z,1768
2018-08-22T07:51:17.936Z,1688
2018-08-22T07:51:58.781Z,1624
2018-08-22T07:52:39.576Z,1576
2018-08-22T07:53:20.348Z,1532
2018-08-22T07:54:01.019Z,1492
2018-08-22T07:54:41.746Z,1452
2018-08-22T07:55:22.557Z,1424
2018-08-22T07:56:03.329Z,1392
2018-08-22T07:56:44.178Z,1364
2018-08-22T07:57:25.068Z,1340
2018-08-22T07:58:06.019Z,1312
2018-08-22T07:58:46.811Z,1288
2018-08-22T07:59:27.599Z,1268
2018-08-22T08:00:08.348Z,1252
2018-08-22T08:00:49.061Z,1232
2018-08-22T08:01:29.867Z,1208
2018-08-22T08:02:10.668Z,1196
2018-08-22T08:02:51.478Z,1176
2018-08-22T08:03:32.339Z,1160
2018-08-22T08:04:13.121Z,1144
2018-08-22T08:04:53.915Z,1132
2018-08-22T08:05:35.000Z,1112
2018-08-22T08:06:15.723Z,1100
2018-08-22T08:06:56.475Z,1088
2018-08-22T08:07:37.305Z,1076
2018-08-22T08:08:18.071Z,1064
2018-08-22T08:08:58.880Z,1052
2018-08-22T08:09:39.744Z,1044
2018-08-22T08:10:20.520Z,1032
2018-08-22T08:11:01.286Z,1024
2018-08-22T08:11:42.016Z,1012
2018-08-22T08:12:22.786Z,1004
2018-08-22T08:13:03.624Z,996
2018-08-22T08:13:44.474Z,988
2018-08-22T08:14:25.218Z,976
2018-08-22T08:15:06.076Z,968
2018-08-22T08:15:46.840Z,964
2018-08-22T08:16:27.677Z,956
2018-08-22T08:17:08.540Z,948
2018-08-22T08:17:49.196Z,944
2018-08-22T08:18:29.998Z,932
2018-08-22T08:19:10.789Z,928
2018-08-22T08:19:51.536Z,916
2018-08-22T08:22:22.395Z,892
2018-08-22T08:23:03.120Z,884
2018-08-22T08:23:43.891Z,876
2018-08-22T08:24:24.689Z,872
2018-08-22T08:25:05.581Z,868
2018-08-22T08:25:46.385Z,860
2018-08-22T08:26:27.151Z,856
2018-08-22T08:27:07.981Z,848
2018-08-22T08:27:48.784Z,844
2018-08-22T08:28:29.649Z,836
2018-08-22T08:29:10.404Z,832
2018-08-22T08:29:51.187Z,828
2018-08-22T08:30:32.070Z,824
2018-08-22T08:31:12.848Z,816
2018-08-22T08:31:53.582Z,812
2018-08-22T08:32:34.297Z,808
2018-08-22T08:33:15.096Z,800
2018-08-22T08:33:55.968Z,796
2018-08-22T08:34:36.781Z,792
2018-08-22T08:35:17.592Z,788
2018-08-22T08:35:58.426Z,784
2018-08-22T08:36:39.080Z,776
2018-08-22T08:37:19.795Z,772
2018-08-22T08:38:00.632Z,768
2018-08-22T08:38:41.397Z,760
2018-08-22T08:39:22.109Z,756
2018-08-22T08:40:02.876Z,752
2018-08-22T08:40:43.661Z,744
2018-08-22T08:41:24.536Z,744
2018-08-22T08:42:05.237Z,744
2018-08-22T08:42:46.002Z,736
2018-08-22T08:43:26.933Z,732
2018-08-22T08:44:07.604Z,732
2018-08-22T08:44:48.338Z,724
2018-08-22T08:45:29.165Z,720
2018-08-22T08:46:09.927Z,716
2018-08-22T08:46:50.724Z,716
2018-08-22T08:47:31.565Z,712
2018-08-22T08:48:12.266Z,704
2018-08-22T08:48:53.226Z,704
2018-08-22T08:49:34.082Z,700
2018-08-22T08:50:14.902Z,692
2018-08-22T08:50:55.654Z,692
2018-08-22T08:51:36.385Z,688
2018-08-22T08:52:17.232Z,688
2018-08-22T08:52:58.024Z,680
2018-08-22T08:53:38.882Z,680
2018-08-22T08:54:19.806Z,676
2018-08-22T08:55:00.571Z,676
2018-08-22T08:55:41.301Z,672
2018-08-22T08:56:22.127Z,668
2018-08-22T08:57:02.933Z,668
2018-08-22T08:57:43.684Z,664
2018-08-22T08:58:24.442Z,664
2018-08-22T08:59:05.162Z,660
2018-08-22T08:59:46.052Z,656
2018-08-22T09:00:26.806Z,652
2018-08-22T09:01:07.562Z,652
2018-08-22T09:01:48.395Z,652
2018-08-22T09:02:29.186Z,644
2018-08-22T09:03:10.098Z,644
2018-08-22T09:03:50.875Z,644
2018-08-22T09:04:31.542Z,644
2018-08-22T09:05:12.443Z,644
2018-08-22T09:05:53.297Z,648
2018-08-22T09:06:34.081Z,640
2018-08-22T09:07:14.777Z,636
2018-08-22T09:07:55.569Z,632
2018-08-22T09:08:36.443Z,632
2018-08-22T09:09:17.238Z,632
2018-08-22T09:09:58.040Z,628
2018-08-22T09:10:38.798Z,620
2018-08-22T09:11:19.558Z,620
2018-08-22T09:12:00.266Z,620
2018-08-22T09:12:41.102Z,616
2018-08-22T09:13:21.820Z,616
2018-08-22T09:14:02.562Z,612
2018-08-22T09:14:43.354Z,612
2018-08-22T09:15:24.184Z,612
2018-08-22T09:16:05.062Z,608
2018-08-22T09:16:45.816Z,604
2018-08-22T09:17:26.515Z,600
2018-08-22T09:18:07.315Z,600
2018-08-22T09:18:48.064Z,596
2018-08-22T09:19:28.938Z,592
2018-08-22T09:20:09.818Z,592
2018-08-22T09:20:50.596Z,592
2018-08-22T09:21:31.416Z,588
2018-08-22T09:22:12.128Z,588
2018-08-22T09:22:52.953Z,588
2018-08-22T09:23:33.730Z,588
2018-08-22T09:24:14.503Z,584
2018-08-22T09:24:55.239Z,576
2018-08-22T09:25:36.026Z,576
2018-08-22T09:26:16.886Z,580
2018-08-22T09:26:57.751Z,576
2018-08-22T09:27:38.532Z,580
2018-08-22T09:28:19.341Z,584
2018-08-22T09:29:00.083Z,580
2018-08-22T09:29:40.907Z,580
2018-08-22T09:30:21.702Z,580
2018-08-22T09:31:02.479Z,584
2018-08-22T09:31:43.241Z,584
2018-08-22T09:32:24.115Z,580
2018-08-22T09:33:04.972Z,584
2018-08-22T09:33:45.839Z,584
2018-08-22T09:34:26.548Z,580
2018-08-22T09:35:07.264Z,608
2018-08-22T09:35:48.104Z,584
2018-08-22T09:36:28.862Z,580
2018-08-22T09:37:09.595Z,580
2018-08-22T09:37:50.341Z,580
2018-08-22T09:38:31.097Z,580
2018-08-22T09:39:11.946Z,568
2018-08-22T09:39:52.693Z,572
2018-08-22T09:40:33.413Z,576